sensor_id;sensor_type;location;lat;lon;timestamp;pressure;altitude;pressure_sealevel;temperature
74485;BMP280;62942;52.462;10.846;2022-08-23T00:00:23;100960;;;
74485;BMP280;62942;52.462;10.846;2022-08-23T00:01:24;100960;;;
74485;BMP280;62942;52.462;10.846;2022-08-23T00:02:33;100960;;;
74485;BMP280;62942;52.462;10.846;2022-08-23T00:03:43;100960;;;
74485;BMP280;62942;52.462;10.846;2022-08-23T00:04:53;100960;;;
74485;BMP280;62942;52.462;10.846;2022-08-23T00:06:03;100960;;;
74485;BMP280;62942;52.462;10.846;2022-08-23T00:07:05;100960;;;
74485;BMP280;62942;52.462;10.846;2022-08-23T00:08:04;100960;;;
74485;BMP280;62942;52.462;10.846;2022-08-23T00:09:14;100960;;;
74485;BMP280;62942;52.462;10.846;2022-08-23T00:10:14;100960;;;
74485;BMP280;62942;52.462;10.846;2022-08-23T00:11:22;100970;;;
74485;BMP280;62942;52.462;10.846;2022-08-23T00:12:23;100970;;;
74485;BMP280;62942;52.462;10.846;2022-08-23T00:13:23;100970;;;
74485;BMP280;62942;52.462;10.846;2022-08-23T00:14:24;100960;;;
74485;BMP280;62942;52.462;10.846;2022-08-23T00:15:33;100950;;;
74485;BMP280;62942;52.462;10.846;2022-08-23T00:16:43;100960;;;
74485;BMP280;62942;52.462;10.846;2022-08-23T00:17:53;100970;;;
74485;BMP280;62942;52.462;10.846;2022-08-23T00:19:04;100970;;;
74485;BMP280;62942;52.462;10.846;2022-08-23T00:20:15;100970;;;
74485;BMP280;62942;52.462;10.846;2022-08-23T00:21:23;100970;;;
74485;BMP280;62942;52.462;10.846;2022-08-23T00:22:33;100970;;;
74485;BMP280;62942;52.462;10.846;2022-08-23T00:23:33;100960;;;
74485;BMP280;62942;52.462;10.846;2022-08-23T00:24:34;100960;;;
74485;BMP280;62942;52.462;10.846;2022-08-23T00:25:33;100960;;;
74485;BMP280;62942;52.462;10.846;2022-08-23T00:26:46;100960;;;
74485;BMP280;62942;52.462;10.846;2022-08-23T00:27:43;100960;;;
74485;BMP280;62942;52.462;10.846;2022-08-23T00:28:43;100950;;;
74485;BMP280;62942;52.462;10.846;2022-08-23T00:29:54;100950;;;
74485;BMP280;62942;52.462;10.846;2022-08-23T00:30:53;100960;;;
74485;BMP280;62942;52.462;10.846;2022-08-23T00:31:53;100960;;;
74485;BMP280;62942;52.462;10.846;2022-08-23T00:32:53;100950;;;
74485;BMP280;62942;52.462;10.846;2022-08-23T00:34:03;100960;;;
74485;BMP280;62942;52.462;10.846;2022-08-23T00:35:04;100950;;;
74485;BMP280;62942;52.462;10.846;2022-08-23T00:36:13;100950;;;
74485;BMP280;62942;52.462;10.846;2022-08-23T00:37:24;100950;;;
74485;BMP280;62942;52.462;10.846;2022-08-23T00:38:33;100950;;;
74485;BMP280;62942;52.462;10.846;2022-08-23T00:39:43;100940;;;
74485;BMP280;62942;52.462;10.846;2022-08-23T00:40:53;100940;;;
74485;BMP280;62942;52.462;10.846;2022-08-23T00:42:04;100940;;;
74485;BMP280;62942;52.462;10.846;2022-08-23T00:43:25;100940;;;
74485;BMP280;62942;52.462;10.846;2022-08-23T00:44:24;100940;;;
74485;BMP280;62942;52.462;10.846;2022-08-23T00:45:34;100940;;;
74485;BMP280;62942;52.462;10.846;2022-08-23T00:46:38;100940;;;
74485;BMP280;62942;52.462;10.846;2022-08-23T00:47:33;100940;;;
74485;BMP280;62942;52.462;10.846;2022-08-23T00:48:33;100940;;;
74485;BMP280;62942;52.462;10.846;2022-08-23T00:49:44;100940;;;
74485;BMP280;62942;52.462;10.846;2022-08-23T00:50:46;100940;;;
74485;BMP280;62942;52.462;10.846;2022-08-23T00:51:44;100940;;;
74485;BMP280;62942;52.462;10.846;2022-08-23T00:52:45;100940;;;
74485;BMP280;62942;52.462;10.846;2022-08-23T00:53:54;100940;;;
74485;BMP280;62942;52.462;10.846;2022-08-23T00:54:53;100940;;;
74485;BMP280;62942;52.462;10.846;2022-08-23T00:55:55;100940;;;
74485;BMP280;62942;52.462;10.846;2022-08-23T00:56:54;100940;;;
74485;BMP280;62942;52.462;10.846;2022-08-23T00:58:03;100920;;;
74485;BMP280;62942;52.462;10.846;2022-08-23T00:59:03;100940;;;
74485;BMP280;62942;52.462;10.846;2022-08-23T01:00:04;100940;;;
74485;BMP280;62942;52.462;10.846;2022-08-23T01:01:03;100930;;;
74485;BMP280;62942;52.462;10.846;2022-08-23T01:02:04;100940;;;
74485;BMP280;62942;52.462;10.846;2022-08-23T01:03:03;100940;;;
74485;BMP280;62942;52.462;10.846;2022-08-23T01:04:13;100940;;;
74485;BMP280;62942;52.462;10.846;2022-08-23T01:05:23;100940;;;
74485;BMP280;62942;52.462;10.846;2022-08-23T01:06:34;100930;;;
74485;BMP280;62942;52.462;10.846;2022-08-23T01:07:45;100930;;;
74485;BMP280;62942;52.462;10.846;2022-08-23T01:08:43;100930;;;
74485;BMP280;62942;52.462;10.846;2022-08-23T01:09:54;100930;;;
74485;BMP280;62942;52.462;10.846;2022-08-23T01:11:05;100930;;;
74485;BMP280;62942;52.462;10.846;2022-08-23T01:12:15;100930;;;
74485;BMP280;62942;52.462;10.846;2022-08-23T01:13:24;100940;;;
74485;BMP280;62942;52.462;10.846;2022-08-23T01:14:24;100920;;;
74485;BMP280;62942;52.462;10.846;2022-08-23T01:15:24;100940;;;
74485;BMP280;62942;52.462;10.846;2022-08-23T01:16:24;100940;;;
74485;BMP280;62942;52.462;10.846;2022-08-23T01:17:34;100940;;;
74485;BMP280;62942;52.462;10.846;2022-08-23T01:18:43;100940;;;
74485;BMP280;62942;52.462;10.846;2022-08-23T01:19:45;100940;;;
74485;BMP280;62942;52.462;10.846;2022-08-23T01:20:55;100930;;;
74485;BMP280;62942;52.462;10.846;2022-08-23T01:22:04;100940;;;
74485;BMP280;62942;52.462;10.846;2022-08-23T01:23:18;100940;;;
74485;BMP280;62942;52.462;10.846;2022-08-23T01:24:13;100940;;;
74485;BMP280;62942;52.462;10.846;2022-08-23T01:25:24;100930;;;
74485;BMP280;62942;52.462;10.846;2022-08-23T01:26:23;100930;;;
74485;BMP280;62942;52.462;10.846;2022-08-23T01:27:33;100940;;;
74485;BMP280;62942;52.462;10.846;2022-08-23T01:28:33;100930;;;
74485;BMP280;62942;52.462;10.846;2022-08-23T01:29:43;100940;;;
74485;BMP280;62942;52.462;10.846;2022-08-23T01:30:53;100940;;;
74485;BMP280;62942;52.462;10.846;2022-08-23T01:31:53;100930;;;
74485;BMP280;62942;52.462;10.846;2022-08-23T01:33:04;100930;;;
74485;BMP280;62942;52.462;10.846;2022-08-23T01:34:13;100930;;;
74485;BMP280;62942;52.462;10.846;2022-08-23T01:35:28;100930;;;
74485;BMP280;62942;52.462;10.846;2022-08-23T01:36:23;100930;;;
74485;BMP280;62942;52.462;10.846;2022-08-23T01:37:33;100920;;;
74485;BMP280;62942;52.462;10.846;2022-08-23T01:38:43;100930;;;
74485;BMP280;62942;52.462;10.846;2022-08-23T01:39:43;100940;;;
74485;BMP280;62942;52.462;10.846;2022-08-23T01:40:53;100930;;;
74485;BMP280;62942;52.462;10.846;2022-08-23T01:42:03;100930;;;
74485;BMP280;62942;52.462;10.846;2022-08-23T01:43:03;100930;;;
74485;BMP280;62942;52.462;10.846;2022-08-23T01:44:13;100930;;;
74485;BMP280;62942;52.462;10.846;2022-08-23T01:45:14;100930;;;
74485;BMP280;62942;52.462;10.846;2022-08-23T01:46:23;100940;;;
74485;BMP280;62942;52.462;10.846;2022-08-23T01:47:33;100940;;;
74485;BMP280;62942;52.462;10.846;2022-08-23T01:48:43;100930;;;
74485;BMP280;62942;52.462;10.846;2022-08-23T01:49:43;100940;;;
74485;BMP280;62942;52.462;10.846;2022-08-23T01:50:53;100940;;;
74485;BMP280;62942;52.462;10.846;2022-08-23T01:52:03;100940;;;
74485;BMP280;62942;52.462;10.846;2022-08-23T01:53:13;100940;;;
74485;BMP280;62942;52.462;10.846;2022-08-23T01:54:23;100940;;;
74485;BMP280;62942;52.462;10.846;2022-08-23T01:55:33;100950;;;
74485;BMP280;62942;52.462;10.846;2022-08-23T01:56:33;100940;;;
74485;BMP280;62942;52.462;10.846;2022-08-23T01:57:43;100940;;;
74485;BMP280;62942;52.462;10.846;2022-08-23T01:58:43;100940;;;
74485;BMP280;62942;52.462;10.846;2022-08-23T01:59:53;100940;;;
74485;BMP280;62942;52.462;10.846;2022-08-23T02:01:03;100940;;;
74485;BMP280;62942;52.462;10.846;2022-08-23T02:02:13;100940;;;
74485;BMP280;62942;52.462;10.846;2022-08-23T02:03:13;100940;;;
74485;BMP280;62942;52.462;10.846;2022-08-23T02:04:23;100940;;;
74485;BMP280;62942;52.462;10.846;2022-08-23T02:05:23;100950;;;
74485;BMP280;62942;52.462;10.846;2022-08-23T02:06:23;100940;;;
74485;BMP280;62942;52.462;10.846;2022-08-23T02:07:33;100940;;;
74485;BMP280;62942;52.462;10.846;2022-08-23T02:08:43;100940;;;
74485;BMP280;62942;52.462;10.846;2022-08-23T02:09:43;100940;;;
74485;BMP280;62942;52.462;10.846;2022-08-23T02:10:43;100940;;;
74485;BMP280;62942;52.462;10.846;2022-08-23T02:11:53;100940;;;
74485;BMP280;62942;52.462;10.846;2022-08-23T02:12:53;100950;;;
74485;BMP280;62942;52.462;10.846;2022-08-23T02:13:54;100940;;;
74485;BMP280;62942;52.462;10.846;2022-08-23T02:15:03;100940;;;
74485;BMP280;62942;52.462;10.846;2022-08-23T02:16:03;100950;;;
74485;BMP280;62942;52.462;10.846;2022-08-23T02:17:03;100950;;;
74485;BMP280;62942;52.462;10.846;2022-08-23T02:18:13;100940;;;
74485;BMP280;62942;52.462;10.846;2022-08-23T02:19:23;100940;;;
74485;BMP280;62942;52.462;10.846;2022-08-23T02:20:33;100940;;;
74485;BMP280;62942;52.462;10.846;2022-08-23T02:21:33;100940;;;
74485;BMP280;62942;52.462;10.846;2022-08-23T02:22:43;100940;;;
74485;BMP280;62942;52.462;10.846;2022-08-23T02:23:53;100940;;;
74485;BMP280;62942;52.462;10.846;2022-08-23T02:24:53;100940;;;
74485;BMP280;62942;52.462;10.846;2022-08-23T02:25:53;100950;;;
74485;BMP280;62942;52.462;10.846;2022-08-23T02:27:03;100950;;;
74485;BMP280;62942;52.462;10.846;2022-08-23T02:28:13;100950;;;
74485;BMP280;62942;52.462;10.846;2022-08-23T02:29:24;100950;;;
74485;BMP280;62942;52.462;10.846;2022-08-23T02:30:33;100950;;;
74485;BMP280;62942;52.462;10.846;2022-08-23T02:31:33;100950;;;
74485;BMP280;62942;52.462;10.846;2022-08-23T02:32:43;100950;;;
74485;BMP280;62942;52.462;10.846;2022-08-23T02:33:53;100950;;;
74485;BMP280;62942;52.462;10.846;2022-08-23T02:35:03;100950;;;
74485;BMP280;62942;52.462;10.846;2022-08-23T02:36:13;100960;;;
74485;BMP280;62942;52.462;10.846;2022-08-23T02:37:13;100960;;;
74485;BMP280;62942;52.462;10.846;2022-08-23T02:38:13;100960;;;
74485;BMP280;62942;52.462;10.846;2022-08-23T02:39:14;100960;;;
74485;BMP280;62942;52.462;10.846;2022-08-23T02:40:13;100960;;;
74485;BMP280;62942;52.462;10.846;2022-08-23T02:41:23;100960;;;
74485;BMP280;62942;52.462;10.846;2022-08-23T02:42:33;100960;;;
74485;BMP280;62942;52.462;10.846;2022-08-23T02:43:43;100960;;;
74485;BMP280;62942;52.462;10.846;2022-08-23T02:44:43;100970;;;
74485;BMP280;62942;52.462;10.846;2022-08-23T02:45:53;100960;;;
74485;BMP280;62942;52.462;10.846;2022-08-23T02:47:03;100960;;;
74485;BMP280;62942;52.462;10.846;2022-08-23T02:48:03;100960;;;
74485;BMP280;62942;52.462;10.846;2022-08-23T02:49:03;100980;;;
74485;BMP280;62942;52.462;10.846;2022-08-23T02:50:03;100980;;;
74485;BMP280;62942;52.462;10.846;2022-08-23T02:51:04;100980;;;
74485;BMP280;62942;52.462;10.846;2022-08-23T02:52:13;100980;;;
74485;BMP280;62942;52.462;10.846;2022-08-23T02:53:23;100980;;;
74485;BMP280;62942;52.462;10.846;2022-08-23T02:54:23;100980;;;
74485;BMP280;62942;52.462;10.846;2022-08-23T02:55:33;100980;;;
74485;BMP280;62942;52.462;10.846;2022-08-23T02:56:33;100980;;;
74485;BMP280;62942;52.462;10.846;2022-08-23T02:57:43;100980;;;
74485;BMP280;62942;52.462;10.846;2022-08-23T02:58:53;100980;;;
74485;BMP280;62942;52.462;10.846;2022-08-23T03:00:03;100990;;;
74485;BMP280;62942;52.462;10.846;2022-08-23T03:01:03;100990;;;
74485;BMP280;62942;52.462;10.846;2022-08-23T03:02:03;100980;;;
74485;BMP280;62942;52.462;10.846;2022-08-23T03:03:13;100980;;;
74485;BMP280;62942;52.462;10.846;2022-08-23T03:04:13;100990;;;
74485;BMP280;62942;52.462;10.846;2022-08-23T03:05:23;100990;;;
74485;BMP280;62942;52.462;10.846;2022-08-23T03:06:23;100990;;;
74485;BMP280;62942;52.462;10.846;2022-08-23T03:07:33;100990;;;
74485;BMP280;62942;52.462;10.846;2022-08-23T03:08:43;100990;;;
74485;BMP280;62942;52.462;10.846;2022-08-23T03:09:53;100990;;;
74485;BMP280;62942;52.462;10.846;2022-08-23T03:10:53;100990;;;
74485;BMP280;62942;52.462;10.846;2022-08-23T03:12:03;100990;;;
74485;BMP280;62942;52.462;10.846;2022-08-23T03:13:13;100990;;;
74485;BMP280;62942;52.462;10.846;2022-08-23T03:14:13;100990;;;
74485;BMP280;62942;52.462;10.846;2022-08-23T03:15:23;101000;;;
74485;BMP280;62942;52.462;10.846;2022-08-23T03:16:23;100990;;;
74485;BMP280;62942;52.462;10.846;2022-08-23T03:17:33;100990;;;
74485;BMP280;62942;52.462;10.846;2022-08-23T03:18:43;100990;;;
74485;BMP280;62942;52.462;10.846;2022-08-23T03:19:53;100990;;;
74485;BMP280;62942;52.462;10.846;2022-08-23T03:21:04;100990;;;
74485;BMP280;62942;52.462;10.846;2022-08-23T03:22:13;100990;;;
74485;BMP280;62942;52.462;10.846;2022-08-23T03:23:13;100980;;;
74485;BMP280;62942;52.462;10.846;2022-08-23T03:24:23;100980;;;
74485;BMP280;62942;52.462;10.846;2022-08-23T03:25:33;100980;;;
74485;BMP280;62942;52.462;10.846;2022-08-23T03:26:33;100980;;;
74485;BMP280;62942;52.462;10.846;2022-08-23T03:27:43;100980;;;
74485;BMP280;62942;52.462;10.846;2022-08-23T03:28:53;100980;;;
74485;BMP280;62942;52.462;10.846;2022-08-23T03:29:53;100970;;;
74485;BMP280;62942;52.462;10.846;2022-08-23T03:31:03;100980;;;
74485;BMP280;62942;52.462;10.846;2022-08-23T03:32:04;100980;;;
74485;BMP280;62942;52.462;10.846;2022-08-23T03:33:13;100980;;;
74485;BMP280;62942;52.462;10.846;2022-08-23T03:34:13;100980;;;
74485;BMP280;62942;52.462;10.846;2022-08-23T03:35:13;100990;;;
74485;BMP280;62942;52.462;10.846;2022-08-23T03:36:23;100980;;;
74485;BMP280;62942;52.462;10.846;2022-08-23T03:37:33;100980;;;
74485;BMP280;62942;52.462;10.846;2022-08-23T03:38:43;100980;;;
74485;BMP280;62942;52.462;10.846;2022-08-23T03:39:53;100990;;;
74485;BMP280;62942;52.462;10.846;2022-08-23T03:41:03;100990;;;
74485;BMP280;62942;52.462;10.846;2022-08-23T03:42:03;100990;;;
74485;BMP280;62942;52.462;10.846;2022-08-23T03:43:13;100990;;;
74485;BMP280;62942;52.462;10.846;2022-08-23T03:44:13;100980;;;
74485;BMP280;62942;52.462;10.846;2022-08-23T03:45:23;100990;;;
74485;BMP280;62942;52.462;10.846;2022-08-23T03:46:33;100990;;;
74485;BMP280;62942;52.462;10.846;2022-08-23T03:47:43;100990;;;
74485;BMP280;62942;52.462;10.846;2022-08-23T03:48:54;101000;;;
74485;BMP280;62942;52.462;10.846;2022-08-23T03:49:53;101000;;;
74485;BMP280;62942;52.462;10.846;2022-08-23T03:51:03;101000;;;
74485;BMP280;62942;52.462;10.846;2022-08-23T03:52:13;100990;;;
74485;BMP280;62942;52.462;10.846;2022-08-23T03:53:23;101000;;;
74485;BMP280;62942;52.462;10.846;2022-08-23T03:54:33;101010;;;
74485;BMP280;62942;52.462;10.846;2022-08-23T03:55:43;101000;;;
74485;BMP280;62942;52.462;10.846;2022-08-23T03:56:53;101000;;;
74485;BMP280;62942;52.462;10.846;2022-08-23T03:57:53;101010;;;
74485;BMP280;62942;52.462;10.846;2022-08-23T03:59:04;101000;;;
74485;BMP280;62942;52.462;10.846;2022-08-23T04:00:03;101010;;;
74485;BMP280;62942;52.462;10.846;2022-08-23T04:01:03;101010;;;
74485;BMP280;62942;52.462;10.846;2022-08-23T04:02:13;101010;;;
74485;BMP280;62942;52.462;10.846;2022-08-23T04:03:23;101020;;;
74485;BMP280;62942;52.462;10.846;2022-08-23T04:04:33;101010;;;
74485;BMP280;62942;52.462;10.846;2022-08-23T04:05:43;101010;;;
74485;BMP280;62942;52.462;10.846;2022-08-23T04:06:43;101010;;;
74485;BMP280;62942;52.462;10.846;2022-08-23T04:07:53;101010;;;
74485;BMP280;62942;52.462;10.846;2022-08-23T04:09:03;101010;;;
74485;BMP280;62942;52.462;10.846;2022-08-23T04:10:04;101020;;;
74485;BMP280;62942;52.462;10.846;2022-08-23T04:11:03;101020;;;
74485;BMP280;62942;52.462;10.846;2022-08-23T04:12:13;101020;;;
74485;BMP280;62942;52.462;10.846;2022-08-23T04:13:23;101020;;;
74485;BMP280;62942;52.462;10.846;2022-08-23T04:14:23;101020;;;
74485;BMP280;62942;52.462;10.846;2022-08-23T04:15:33;101020;;;
74485;BMP280;62942;52.462;10.846;2022-08-23T04:16:33;101020;;;
74485;BMP280;62942;52.462;10.846;2022-08-23T04:17:43;101020;;;
74485;BMP280;62942;52.462;10.846;2022-08-23T04:18:43;101020;;;
74485;BMP280;62942;52.462;10.846;2022-08-23T04:19:53;101020;;;
74485;BMP280;62942;52.462;10.846;2022-08-23T04:20:53;101020;;;
74485;BMP280;62942;52.462;10.846;2022-08-23T04:22:03;101020;;;
74485;BMP280;62942;52.462;10.846;2022-08-23T04:23:03;101020;;;
74485;BMP280;62942;52.462;10.846;2022-08-23T04:24:13;101010;;;
74485;BMP280;62942;52.462;10.846;2022-08-23T04:25:23;101010;;;
74485;BMP280;62942;52.462;10.846;2022-08-23T04:26:23;101020;;;
74485;BMP280;62942;52.462;10.846;2022-08-23T04:27:33;101020;;;
74485;BMP280;62942;52.462;10.846;2022-08-23T04:28:43;101020;;;
74485;BMP280;62942;52.462;10.846;2022-08-23T04:29:53;101020;;;
74485;BMP280;62942;52.462;10.846;2022-08-23T04:31:03;101020;;;
74485;BMP280;62942;52.462;10.846;2022-08-23T04:32:13;101030;;;
74485;BMP280;62942;52.462;10.846;2022-08-23T04:33:23;101030;;;
74485;BMP280;62942;52.462;10.846;2022-08-23T04:34:33;101020;;;
74485;BMP280;62942;52.462;10.846;2022-08-23T04:35:33;101020;;;
74485;BMP280;62942;52.462;10.846;2022-08-23T04:36:43;101020;;;
74485;BMP280;62942;52.462;10.846;2022-08-23T04:37:53;101020;;;
74485;BMP280;62942;52.462;10.846;2022-08-23T04:39:03;101020;;;
74485;BMP280;62942;52.462;10.846;2022-08-23T04:40:03;101020;;;
74485;BMP280;62942;52.462;10.846;2022-08-23T04:41:13;101020;;;
74485;BMP280;62942;52.462;10.846;2022-08-23T04:42:13;101020;;;
74485;BMP280;62942;52.462;10.846;2022-08-23T04:43:13;101020;;;
74485;BMP280;62942;52.462;10.846;2022-08-23T04:44:23;101030;;;
74485;BMP280;62942;52.462;10.846;2022-08-23T04:45:33;101020;;;
74485;BMP280;62942;52.462;10.846;2022-08-23T04:46:43;101020;;;
74485;BMP280;62942;52.462;10.846;2022-08-23T04:47:43;101030;;;
74485;BMP280;62942;52.462;10.846;2022-08-23T04:48:53;101030;;;
74485;BMP280;62942;52.462;10.846;2022-08-23T04:49:53;101030;;;
74485;BMP280;62942;52.462;10.846;2022-08-23T04:51:03;101030;;;
74485;BMP280;62942;52.462;10.846;2022-08-23T04:52:13;101030;;;
74485;BMP280;62942;52.462;10.846;2022-08-23T04:53:23;101030;;;
74485;BMP280;62942;52.462;10.846;2022-08-23T04:54:23;101040;;;
74485;BMP280;62942;52.462;10.846;2022-08-23T04:55:23;101030;;;
74485;BMP280;62942;52.462;10.846;2022-08-23T04:56:33;101030;;;
74485;BMP280;62942;52.462;10.846;2022-08-23T04:57:43;101040;;;
74485;BMP280;62942;52.462;10.846;2022-08-23T04:58:53;101040;;;
74485;BMP280;62942;52.462;10.846;2022-08-23T05:00:03;101040;;;
74485;BMP280;62942;52.462;10.846;2022-08-23T05:01:04;101050;;;
74485;BMP280;62942;52.462;10.846;2022-08-23T05:02:03;101050;;;
74485;BMP280;62942;52.462;10.846;2022-08-23T05:03:13;101040;;;
74485;BMP280;62942;52.462;10.846;2022-08-23T05:04:13;101050;;;
74485;BMP280;62942;52.462;10.846;2022-08-23T05:05:23;101050;;;
74485;BMP280;62942;52.462;10.846;2022-08-23T05:06:23;101050;;;
74485;BMP280;62942;52.462;10.846;2022-08-23T05:07:33;101060;;;
74485;BMP280;62942;52.462;10.846;2022-08-23T05:08:33;101060;;;
74485;BMP280;62942;52.462;10.846;2022-08-23T05:09:43;101060;;;
74485;BMP280;62942;52.462;10.846;2022-08-23T05:10:43;101070;;;
74485;BMP280;62942;52.462;10.846;2022-08-23T05:11:53;101060;;;
74485;BMP280;62942;52.462;10.846;2022-08-23T05:12:53;101070;;;
74485;BMP280;62942;52.462;10.846;2022-08-23T05:14:03;101070;;;
74485;BMP280;62942;52.462;10.846;2022-08-23T05:15:03;101070;;;
74485;BMP280;62942;52.462;10.846;2022-08-23T05:16:13;101070;;;
74485;BMP280;62942;52.462;10.846;2022-08-23T05:17:23;101070;;;
74485;BMP280;62942;52.462;10.846;2022-08-23T05:18:23;101070;;;
74485;BMP280;62942;52.462;10.846;2022-08-23T05:19:33;101070;;;
74485;BMP280;62942;52.462;10.846;2022-08-23T05:20:43;101070;;;
74485;BMP280;62942;52.462;10.846;2022-08-23T05:21:53;101060;;;
74485;BMP280;62942;52.462;10.846;2022-08-23T05:22:53;101070;;;
74485;BMP280;62942;52.462;10.846;2022-08-23T05:24:03;101070;;;
74485;BMP280;62942;52.462;10.846;2022-08-23T05:25:13;101070;;;
74485;BMP280;62942;52.462;10.846;2022-08-23T05:26:23;101070;;;
74485;BMP280;62942;52.462;10.846;2022-08-23T05:27:23;101070;;;
74485;BMP280;62942;52.462;10.846;2022-08-23T05:28:33;101070;;;
74485;BMP280;62942;52.462;10.846;2022-08-23T05:29:43;101070;;;
74485;BMP280;62942;52.462;10.846;2022-08-23T05:30:53;101070;;;
74485;BMP280;62942;52.462;10.846;2022-08-23T05:32:03;101070;;;
74485;BMP280;62942;52.462;10.846;2022-08-23T05:33:13;101060;;;
74485;BMP280;62942;52.462;10.846;2022-08-23T05:34:23;101070;;;
74485;BMP280;62942;52.462;10.846;2022-08-23T05:35:23;101070;;;
74485;BMP280;62942;52.462;10.846;2022-08-23T05:36:33;101070;;;
74485;BMP280;62942;52.462;10.846;2022-08-23T05:37:33;101070;;;
74485;BMP280;62942;52.462;10.846;2022-08-23T05:38:43;101070;;;
74485;BMP280;62942;52.462;10.846;2022-08-23T05:39:53;101070;;;
74485;BMP280;62942;52.462;10.846;2022-08-23T05:41:03;101070;;;
74485;BMP280;62942;52.462;10.846;2022-08-23T05:42:14;101070;;;
74485;BMP280;62942;52.462;10.846;2022-08-23T05:43:13;101080;;;
74485;BMP280;62942;52.462;10.846;2022-08-23T05:44:23;101070;;;
74485;BMP280;62942;52.462;10.846;2022-08-23T05:45:33;101080;;;
74485;BMP280;62942;52.462;10.846;2022-08-23T05:46:43;101080;;;
74485;BMP280;62942;52.462;10.846;2022-08-23T05:47:43;101080;;;
74485;BMP280;62942;52.462;10.846;2022-08-23T05:48:53;101080;;;
74485;BMP280;62942;52.462;10.846;2022-08-23T05:49:53;101080;;;
74485;BMP280;62942;52.462;10.846;2022-08-23T05:50:53;101080;;;
74485;BMP280;62942;52.462;10.846;2022-08-23T05:51:53;101080;;;
74485;BMP280;62942;52.462;10.846;2022-08-23T05:53:03;101080;;;
74485;BMP280;62942;52.462;10.846;2022-08-23T05:54:13;101080;;;
74485;BMP280;62942;52.462;10.846;2022-08-23T05:55:13;101070;;;
74485;BMP280;62942;52.462;10.846;2022-08-23T05:56:24;101070;;;
74485;BMP280;62942;52.462;10.846;2022-08-23T05:57:33;101070;;;
74485;BMP280;62942;52.462;10.846;2022-08-23T05:58:43;101090;;;
74485;BMP280;62942;52.462;10.846;2022-08-23T05:59:53;101090;;;
74485;BMP280;62942;52.462;10.846;2022-08-23T06:01:03;101090;;;
74485;BMP280;62942;52.462;10.846;2022-08-23T06:02:03;101080;;;
74485;BMP280;62942;52.462;10.846;2022-08-23T06:03:13;101080;;;
74485;BMP280;62942;52.462;10.846;2022-08-23T06:04:13;101090;;;
74485;BMP280;62942;52.462;10.846;2022-08-23T06:05:23;101090;;;
74485;BMP280;62942;52.462;10.846;2022-08-23T06:06:33;101090;;;
74485;BMP280;62942;52.462;10.846;2022-08-23T06:07:43;101090;;;
74485;BMP280;62942;52.462;10.846;2022-08-23T06:08:53;101090;;;
74485;BMP280;62942;52.462;10.846;2022-08-23T06:10:03;101090;;;
74485;BMP280;62942;52.462;10.846;2022-08-23T06:11:03;101090;;;
74485;BMP280;62942;52.462;10.846;2022-08-23T06:12:13;101090;;;
74485;BMP280;62942;52.462;10.846;2022-08-23T06:13:13;101090;;;
74485;BMP280;62942;52.462;10.846;2022-08-23T06:14:13;101100;;;
74485;BMP280;62942;52.462;10.846;2022-08-23T06:15:23;101090;;;
74485;BMP280;62942;52.462;10.846;2022-08-23T06:16:34;101090;;;
74485;BMP280;62942;52.462;10.846;2022-08-23T06:17:43;101080;;;
74485;BMP280;62942;52.462;10.846;2022-08-23T06:18:53;101090;;;
74485;BMP280;62942;52.462;10.846;2022-08-23T06:20:03;101090;;;
74485;BMP280;62942;52.462;10.846;2022-08-23T06:21:14;101100;;;
74485;BMP280;62942;52.462;10.846;2022-08-23T06:22:13;101100;;;
74485;BMP280;62942;52.462;10.846;2022-08-23T06:23:23;101110;;;
74485;BMP280;62942;52.462;10.846;2022-08-23T06:24:23;101100;;;
74485;BMP280;62942;52.462;10.846;2022-08-23T06:25:34;101100;;;
74485;BMP280;62942;52.462;10.846;2022-08-23T06:26:33;101100;;;
74485;BMP280;62942;52.462;10.846;2022-08-23T06:27:43;101100;;;
74485;BMP280;62942;52.462;10.846;2022-08-23T06:28:43;101100;;;
74485;BMP280;62942;52.462;10.846;2022-08-23T06:29:53;101100;;;
74485;BMP280;62942;52.462;10.846;2022-08-23T06:31:03;101100;;;
74485;BMP280;62942;52.462;10.846;2022-08-23T06:32:13;101090;;;
74485;BMP280;62942;52.462;10.846;2022-08-23T06:33:23;101090;;;
74485;BMP280;62942;52.462;10.846;2022-08-23T06:34:24;101100;;;
74485;BMP280;62942;52.462;10.846;2022-08-23T06:35:23;101100;;;
74485;BMP280;62942;52.462;10.846;2022-08-23T06:36:33;101100;;;
74485;BMP280;62942;52.462;10.846;2022-08-23T06:37:43;101100;;;
74485;BMP280;62942;52.462;10.846;2022-08-23T06:38:53;101100;;;
74485;BMP280;62942;52.462;10.846;2022-08-23T06:40:03;101100;;;
74485;BMP280;62942;52.462;10.846;2022-08-23T06:41:13;101100;;;
74485;BMP280;62942;52.462;10.846;2022-08-23T06:42:23;101100;;;
74485;BMP280;62942;52.462;10.846;2022-08-23T06:43:33;101100;;;
74485;BMP280;62942;52.462;10.846;2022-08-23T06:44:33;101100;;;
74485;BMP280;62942;52.462;10.846;2022-08-23T06:45:33;101100;;;
74485;BMP280;62942;52.462;10.846;2022-08-23T06:46:33;101100;;;
74485;BMP280;62942;52.462;10.846;2022-08-23T06:47:43;101100;;;
74485;BMP280;62942;52.462;10.846;2022-08-23T06:48:53;101100;;;
74485;BMP280;62942;52.462;10.846;2022-08-23T06:49:53;101100;;;
74485;BMP280;62942;52.462;10.846;2022-08-23T06:51:08;101100;;;
74485;BMP280;62942;52.462;10.846;2022-08-23T06:52:03;101100;;;
74485;BMP280;62942;52.462;10.846;2022-08-23T06:53:13;101100;;;
74485;BMP280;62942;52.462;10.846;2022-08-23T06:54:23;101110;;;
74485;BMP280;62942;52.462;10.846;2022-08-23T06:55:33;101110;;;
74485;BMP280;62942;52.462;10.846;2022-08-23T06:56:33;101100;;;
74485;BMP280;62942;52.462;10.846;2022-08-23T06:57:43;101100;;;